createdAt,value
2023-04-05T00:02:51.624Z,6.96
2023-04-05T00:07:08.499Z,6.95
2023-04-05T00:11:21.326Z,6.79
2023-04-05T00:15:33.809Z,6.78
2023-04-05T00:19:46.221Z,6.82
2023-04-05T00:23:58.921Z,6.81
2023-04-05T00:28:12.583Z,6.64
2023-04-05T00:32:25.053Z,6.66
2023-04-05T00:36:37.566Z,6.66
2023-04-05T00:40:50.188Z,6.72
2023-04-05T00:45:04.306Z,6.67
2023-04-05T00:49:17.263Z,6.79
2023-04-05T00:53:29.896Z,6.76
2023-04-05T00:57:42.605Z,6.82
2023-04-05T01:02:06.914Z,6.89
2023-04-05T01:06:44.354Z,6.94
2023-04-05T01:11:00.930Z,6.92
2023-04-05T01:15:14.279Z,6.91
2023-04-05T01:19:30.230Z,6.88
2023-04-05T01:24:30.963Z,6.82
2023-04-05T01:29:20.449Z,6.93
2023-04-05T01:33:41.429Z,7.01
2023-04-05T01:38:00.107Z,7.03
2023-04-05T01:42:12.526Z,6.95
2023-04-05T01:46:26.019Z,7.00
2023-04-05T01:50:38.958Z,6.96
2023-04-05T01:54:51.784Z,6.92
2023-04-05T01:59:04.232Z,6.88
2023-04-05T02:03:17.431Z,6.78
2023-04-05T02:07:30.122Z,6.79
2023-04-05T02:11:42.651Z,6.69
2023-04-05T02:15:55.081Z,6.71
2023-04-05T02:20:12.667Z,6.65
2023-04-05T02:24:25.068Z,6.66
2023-04-05T02:28:37.577Z,6.66
2023-04-05T02:32:50.060Z,6.76
2023-04-05T02:37:03.197Z,6.72
2023-04-05T02:41:15.711Z,6.58
2023-04-05T02:45:28.604Z,6.50
2023-04-05T02:49:43.533Z,6.42
2023-04-05T02:53:56.575Z,6.35
2023-04-05T02:58:11.001Z,6.35
2023-04-05T03:02:29.256Z,6.29
2023-04-05T03:06:45.135Z,6.25
2023-04-05T03:10:58.972Z,6.29
2023-04-05T03:15:11.752Z,6.31
2023-04-05T03:19:27.754Z,6.30
2023-04-05T03:23:48.769Z,6.44
2023-04-05T03:28:06.738Z,6.40
2023-04-05T03:32:19.890Z,6.35
2023-04-05T03:36:46.090Z,6.38
2023-04-05T03:41:16.698Z,6.34
2023-04-05T03:45:32.273Z,6.30
2023-04-05T03:49:44.707Z,6.34
2023-04-05T03:53:57.286Z,6.34
2023-04-05T03:58:12.821Z,6.30
2023-04-05T04:02:26.150Z,6.26
2023-04-05T04:06:38.696Z,6.32
2023-04-05T04:10:51.465Z,6.18
2023-04-05T04:15:13.229Z,6.16
2023-04-05T04:19:30.575Z,6.13
2023-04-05T04:24:01.439Z,6.16
2023-04-05T04:28:35.073Z,6.13
2023-04-05T04:33:09.686Z,6.01
2023-04-05T04:38:00.132Z,5.89
2023-04-05T04:42:26.148Z,5.89
2023-04-05T04:46:54.941Z,6.08
2023-04-05T04:51:26.703Z,6.28
2023-04-05T04:55:42.595Z,6.30
2023-04-05T04:59:55.165Z,6.25
2023-04-05T05:04:07.630Z,6.11
2023-04-05T05:08:22.335Z,6.14
2023-04-05T05:12:34.829Z,5.99
2023-04-05T05:16:47.337Z,5.88
2023-04-05T05:20:59.757Z,5.80
2023-04-05T05:25:12.671Z,5.97
2023-04-05T05:29:26.435Z,6.25
2023-04-05T05:33:38.968Z,6.33
2023-04-05T05:37:51.387Z,6.38
2023-04-05T05:42:03.978Z,6.76
2023-04-05T05:46:16.706Z,6.67
2023-04-05T05:50:33.181Z,6.69
2023-04-05T05:54:45.722Z,6.78
2023-04-05T05:58:59.733Z,6.94
2023-04-05T06:03:12.472Z,6.94
2023-04-05T06:07:25.104Z,7.00
2023-04-05T06:11:46.262Z,7.08
2023-04-05T06:16:02.968Z,7.25
2023-04-05T06:20:15.578Z,7.20
2023-04-05T06:24:32.129Z,7.41
2023-04-05T06:28:44.812Z,7.70
2023-04-05T06:32:57.768Z,7.97
2023-04-05T06:37:10.314Z,8.12
2023-04-05T06:41:22.730Z,8.03
2023-04-05T06:45:35.218Z,7.96
2023-04-05T06:49:47.718Z,8.06
2023-04-05T06:54:00.230Z,8.29
2023-04-05T06:58:12.635Z,8.36
2023-04-05T07:02:25.109Z,8.51
2023-04-05T07:06:39.456Z,8.60
2023-04-05T07:10:52.726Z,8.51
2023-04-05T07:15:05.836Z,8.96
2023-04-05T07:19:18.228Z,9.49
2023-04-05T07:23:31.376Z,9.14
2023-04-05T07:27:43.854Z,9.86
2023-04-05T07:31:56.373Z,10.43
2023-04-05T07:36:09.452Z,10.94
2023-04-05T07:40:21.876Z,10.39
2023-04-05T07:44:34.390Z,10.34
2023-04-05T07:48:50.009Z,11.10
2023-04-05T07:53:02.750Z,11.64
2023-04-05T07:57:19.174Z,10.64
2023-04-05T08:01:32.261Z,10.68
2023-04-05T08:05:44.679Z,10.75
2023-04-05T08:09:58.240Z,11.23
2023-04-05T08:14:11.104Z,11.24
2023-04-05T08:18:23.595Z,11.52
2023-04-05T08:22:36.071Z,11.32
2023-04-05T08:26:49.068Z,12.32
2023-04-05T08:31:01.843Z,12.91
2023-04-05T08:35:14.426Z,13.66
2023-04-05T08:39:27.246Z,13.43
2023-04-05T08:43:58.959Z,12.98
2023-04-05T08:48:11.512Z,13.63
2023-04-05T08:52:24.062Z,13.66
2023-04-05T08:56:37.038Z,14.19
2023-04-05T09:00:51.756Z,13.93
2023-04-05T09:05:09.290Z,13.63
2023-04-05T09:09:23.092Z,13.45
2023-04-05T09:13:35.757Z,13.24
2023-04-05T09:17:48.754Z,13.10
2023-04-05T09:22:08.477Z,13.97
2023-04-05T09:26:26.651Z,16.00
2023-04-05T09:30:48.469Z,14.90
2023-04-05T09:35:08.262Z,13.92
2023-04-05T09:39:29.450Z,12.97
2023-04-05T09:43:43.051Z,13.40
2023-04-05T09:47:58.614Z,13.27
2023-04-05T09:52:25.416Z,12.75
2023-04-05T09:56:42.348Z,12.82
2023-04-05T10:01:06.178Z,12.64
2023-04-05T10:05:28.996Z,12.64
2023-04-05T10:09:43.232Z,12.66
2023-04-05T10:13:55.869Z,12.66
2023-04-05T10:18:19.930Z,13.27
2023-04-05T10:22:53.212Z,13.82
2023-04-05T10:27:21.711Z,14.03
2023-04-05T10:31:58.960Z,12.95
2023-04-05T10:36:46.908Z,12.89
2023-04-05T10:41:16.868Z,12.17
2023-04-05T10:45:30.011Z,11.75
2023-04-05T10:49:50.165Z,11.78
2023-04-05T10:54:03.512Z,11.79
2023-04-05T10:58:16.939Z,11.82
2023-04-05T11:02:30.852Z,11.96
2023-04-05T11:06:48.138Z,11.67
2023-04-05T11:11:01.129Z,11.75
2023-04-05T11:15:32.040Z,11.62
2023-04-05T11:19:50.266Z,11.31
2023-04-05T11:24:12.233Z,11.22
2023-04-05T11:28:34.485Z,11.12
2023-04-05T11:32:46.936Z,11.25
2023-04-05T11:36:59.385Z,11.69
2023-04-05T11:41:18.521Z,11.59
2023-04-05T11:45:32.423Z,11.16
2023-04-05T11:49:50.801Z,11.06
2023-04-05T11:54:03.242Z,10.88
2023-04-05T11:58:21.604Z,10.81
2023-04-05T12:02:36.371Z,10.65
2023-04-05T12:06:49.532Z,10.61
2023-04-05T12:11:01.980Z,10.80
2023-04-05T12:15:15.529Z,10.78
2023-04-05T12:19:30.636Z,11.01
2023-04-05T12:23:43.373Z,11.41
2023-04-05T12:27:55.845Z,11.18
2023-04-05T12:32:08.302Z,11.31
2023-04-05T12:36:20.814Z,11.64
2023-04-05T12:40:36.002Z,11.69
2023-04-05T12:45:03.618Z,11.32
2023-04-05T12:49:18.109Z,11.41
2023-04-05T12:53:30.702Z,11.62
2023-04-05T12:57:43.480Z,11.81
2023-04-05T13:01:55.870Z,11.98
2023-04-05T13:06:08.324Z,11.66
2023-04-05T13:10:22.146Z,12.12
2023-04-05T13:14:34.625Z,12.06
2023-04-05T13:18:47.075Z,12.19
2023-04-05T13:22:59.543Z,12.08
2023-04-05T13:27:11.899Z,11.96
2023-04-05T13:31:24.466Z,12.34
2023-04-05T13:35:37.120Z,12.47
2023-04-05T13:39:49.539Z,12.49
2023-04-05T13:44:03.395Z,13.10
2023-04-05T13:48:16.869Z,12.78
2023-04-05T13:52:30.116Z,12.46
2023-04-05T13:56:42.814Z,12.70
2023-04-05T14:00:55.293Z,12.75
2023-04-05T14:05:08.698Z,12.52
2023-04-05T14:09:21.380Z,12.15
2023-04-05T14:13:35.728Z,12.97
2023-04-05T14:17:48.321Z,12.62
2023-04-05T14:22:00.903Z,13.75
2023-04-05T14:26:13.564Z,13.49
2023-04-05T14:30:26.458Z,13.52
2023-04-05T14:34:39.121Z,14.22
2023-04-05T14:38:51.533Z,14.95
2023-04-05T14:43:04.175Z,14.57
2023-04-05T14:47:16.761Z,14.14
2023-04-05T14:51:29.288Z,14.17
2023-04-05T14:55:41.805Z,13.99
2023-04-05T14:59:54.340Z,14.13
2023-04-05T15:04:08.883Z,13.97
2023-04-05T15:08:21.864Z,13.31
2023-04-05T15:12:34.351Z,13.54
2023-04-05T15:16:46.792Z,12.88
2023-04-05T15:21:00.125Z,12.70
2023-04-05T15:25:12.817Z,12.19
2023-04-05T15:29:25.746Z,11.74
2023-04-05T15:33:38.390Z,11.99
2023-04-05T15:37:50.985Z,11.39
2023-04-05T15:42:03.628Z,11.29
2023-04-05T15:46:16.097Z,11.25
2023-04-05T15:50:29.273Z,11.01
2023-04-05T15:54:41.762Z,11.12
2023-04-05T15:58:54.215Z,10.91
2023-04-05T16:03:06.757Z,10.77
2023-04-05T16:07:19.875Z,10.70
2023-04-05T16:11:32.342Z,10.62
2023-04-05T16:15:44.969Z,10.58
2023-04-05T16:19:57.591Z,10.56
2023-04-05T16:24:10.273Z,10.46
2023-04-05T16:28:22.853Z,10.32
2023-04-05T16:32:35.396Z,10.17
2023-04-05T16:36:48.443Z,10.07
2023-04-05T16:41:00.845Z,9.95
2023-04-05T16:45:13.327Z,9.87
2023-04-05T16:49:25.694Z,9.77
2023-04-05T16:53:38.229Z,9.75
2023-04-05T16:57:50.825Z,9.58
2023-04-05T17:02:03.410Z,9.44
2023-04-05T17:06:16.157Z,9.33
2023-04-05T17:10:28.924Z,9.25
2023-04-05T17:14:41.440Z,9.07
2023-04-05T17:18:53.897Z,8.98
2023-04-05T17:23:06.425Z,8.95
2023-04-05T17:27:18.896Z,8.84
2023-04-05T17:31:33.622Z,8.75
2023-04-05T17:35:46.214Z,8.65
2023-04-05T17:39:58.697Z,8.66
2023-04-05T17:44:11.213Z,8.65
2023-04-05T17:48:23.945Z,8.83
2023-04-05T17:52:36.391Z,8.77
2023-04-05T17:56:48.842Z,8.34
2023-04-05T18:01:01.761Z,8.08
2023-04-05T18:05:14.200Z,7.84
2023-04-05T18:09:28.244Z,7.80
2023-04-05T18:13:40.669Z,7.60
2023-04-05T18:17:53.168Z,8.18
2023-04-05T18:22:05.624Z,7.85
2023-04-05T18:26:18.866Z,7.76
2023-04-05T18:30:41.374Z,7.95
2023-04-05T18:34:53.861Z,8.24
2023-04-05T18:39:06.882Z,8.27
2023-04-05T18:43:19.468Z,7.74
2023-04-05T18:47:33.092Z,7.62
2023-04-05T18:51:49.034Z,7.46
2023-04-05T18:56:01.614Z,7.33
2023-04-05T19:00:14.433Z,7.17
2023-04-05T19:04:26.923Z,7.57
2023-04-05T19:08:40.406Z,7.10
2023-04-05T19:12:52.909Z,7.50
2023-04-05T19:17:06.974Z,7.81
2023-04-05T19:21:20.966Z,7.29
2023-04-05T19:25:33.354Z,7.41
2023-04-05T19:29:46.082Z,7.46
2023-04-05T19:33:59.526Z,7.50
2023-04-05T19:38:14.557Z,7.32
2023-04-05T19:42:27.027Z,7.00
2023-04-05T19:46:40.872Z,7.24
2023-04-05T19:50:56.295Z,6.90
2023-04-05T19:55:27.324Z,6.65
2023-04-05T19:59:40.152Z,6.68
2023-04-05T20:03:52.553Z,7.08
2023-04-05T20:08:07.746Z,6.96
2023-04-05T20:12:22.786Z,6.48
2023-04-05T20:16:37.683Z,6.38
2023-04-05T20:20:50.291Z,6.36
2023-04-05T20:25:34.138Z,6.62
2023-04-05T20:29:46.670Z,6.49
2023-04-05T20:34:11.868Z,6.26
2023-04-05T20:38:24.342Z,6.22
2023-04-05T20:42:37.733Z,6.58
2023-04-05T20:46:54.868Z,6.32
2023-04-05T20:51:08.588Z,6.11
2023-04-05T20:55:21.087Z,6.55
2023-04-05T20:59:33.523Z,6.62
2023-04-05T21:03:47.115Z,6.19
2023-04-05T21:08:01.460Z,6.10
2023-04-05T21:12:14.239Z,6.56
2023-04-05T21:16:26.740Z,6.19
2023-04-05T21:20:39.184Z,5.96
2023-04-05T21:24:51.492Z,6.42
2023-04-05T21:29:03.884Z,6.19
2023-04-05T21:33:18.397Z,6.23
2023-04-05T21:37:30.940Z,5.99
2023-04-05T21:41:43.412Z,6.04
2023-04-05T21:45:55.694Z,5.97
2023-04-05T21:50:10.512Z,5.97
2023-04-05T21:54:22.920Z,5.90
2023-04-05T21:58:35.530Z,5.91
2023-04-05T22:02:47.932Z,6.01
2023-04-05T22:07:00.665Z,6.06
2023-04-05T22:11:13.686Z,5.64
2023-04-05T22:15:26.073Z,5.68
2023-04-05T22:19:38.532Z,5.73
2023-04-05T22:23:51.136Z,5.52
2023-04-05T22:28:03.519Z,5.90
2023-04-05T22:32:16.341Z,5.90
2023-04-05T22:36:28.793Z,5.65
2023-04-05T22:40:41.284Z,5.84
2023-04-05T22:44:53.781Z,5.52
2023-04-05T22:49:06.708Z,5.77
2023-04-05T22:53:19.620Z,5.75
2023-04-05T22:57:32.020Z,5.89
2023-04-05T23:01:44.479Z,5.67
2023-04-05T23:05:57.028Z,5.46
2023-04-05T23:10:09.968Z,5.64
2023-04-05T23:14:22.354Z,5.65
2023-04-05T23:18:34.703Z,5.45
2023-04-05T23:22:48.293Z,5.45
2023-04-05T23:27:00.741Z,5.58
2023-04-05T23:31:13.200Z,5.58
2023-04-05T23:35:25.888Z,5.45
2023-04-05T23:39:38.345Z,5.42
2023-04-05T23:43:50.904Z,5.74
2023-04-05T23:48:03.417Z,5.74
2023-04-05T23:52:16.818Z,5.79
2023-04-05T23:56:29.218Z,5.88
